sensor_id;sensor_type;location;lat;lon;timestamp;temperature;humidity
65046;DHT22;54657;52.022;5.534;2022-11-20T00:00:34;1.20;69.70
65046;DHT22;54657;52.022;5.534;2022-11-20T00:03:00;1.20;69.70
65046;DHT22;54657;52.022;5.534;2022-11-20T00:05:25;1.20;69.70
65046;DHT22;54657;52.022;5.534;2022-11-20T00:07:51;1.10;69.60
65046;DHT22;54657;52.022;5.534;2022-11-20T00:10:16;1.00;69.70
65046;DHT22;54657;52.022;5.534;2022-11-20T00:12:42;0.90;70.10
65046;DHT22;54657;52.022;5.534;2022-11-20T00:15:08;0.70;70.30
65046;DHT22;54657;52.022;5.534;2022-11-20T00:17:34;0.60;70.60
65046;DHT22;54657;52.022;5.534;2022-11-20T00:19:59;0.60;70.70
65046;DHT22;54657;52.022;5.534;2022-11-20T00:22:25;0.70;70.70
65046;DHT22;54657;52.022;5.534;2022-11-20T00:24:50;0.80;70.50
65046;DHT22;54657;52.022;5.534;2022-11-20T00:27:16;0.90;70.20
65046;DHT22;54657;52.022;5.534;2022-11-20T00:29:41;0.90;70.00
65046;DHT22;54657;52.022;5.534;2022-11-20T00:32:07;1.00;70.00
65046;DHT22;54657;52.022;5.534;2022-11-20T00:34:32;1.00;69.70
65046;DHT22;54657;52.022;5.534;2022-11-20T00:36:58;1.00;69.70
65046;DHT22;54657;52.022;5.534;2022-11-20T00:39:23;1.00;69.70
65046;DHT22;54657;52.022;5.534;2022-11-20T00:41:49;1.00;69.60
65046;DHT22;54657;52.022;5.534;2022-11-20T00:44:15;1.00;69.60
65046;DHT22;54657;52.022;5.534;2022-11-20T00:46:41;0.80;69.70
65046;DHT22;54657;52.022;5.534;2022-11-20T00:49:06;0.80;69.80
65046;DHT22;54657;52.022;5.534;2022-11-20T00:51:32;0.90;69.60
65046;DHT22;54657;52.022;5.534;2022-11-20T00:53:58;0.90;69.50
65046;DHT22;54657;52.022;5.534;2022-11-20T00:56:25;0.90;69.50
65046;DHT22;54657;52.022;5.534;2022-11-20T00:58:51;0.90;69.50
65046;DHT22;54657;52.022;5.534;2022-11-20T01:01:21;0.90;69.50
65046;DHT22;54657;52.022;5.534;2022-11-20T01:03:50;0.90;69.50
65046;DHT22;54657;52.022;5.534;2022-11-20T01:06:21;0.90;69.40
65046;DHT22;54657;52.022;5.534;2022-11-20T01:08:48;0.90;69.40
65046;DHT22;54657;52.022;5.534;2022-11-20T01:11:19;0.80;69.50
65046;DHT22;54657;52.022;5.534;2022-11-20T01:13:47;0.70;69.60
65046;DHT22;54657;52.022;5.534;2022-11-20T01:16:20;0.70;69.60
65046;DHT22;54657;52.022;5.534;2022-11-20T01:18:48;0.70;69.80
65046;DHT22;54657;52.022;5.534;2022-11-20T01:21:22;0.70;69.90
65046;DHT22;54657;52.022;5.534;2022-11-20T01:23:49;0.60;69.80
65046;DHT22;54657;52.022;5.534;2022-11-20T01:26:26;0.70;69.70
65046;DHT22;54657;52.022;5.534;2022-11-20T01:28:52;0.70;69.60
65046;DHT22;54657;52.022;5.534;2022-11-20T01:31:22;0.70;69.50
65046;DHT22;54657;52.022;5.534;2022-11-20T01:33:51;0.70;69.60
65046;DHT22;54657;52.022;5.534;2022-11-20T01:36:19;0.70;69.40
65046;DHT22;54657;52.022;5.534;2022-11-20T01:38:45;0.60;69.40
65046;DHT22;54657;52.022;5.534;2022-11-20T01:41:11;0.40;69.70
65046;DHT22;54657;52.022;5.534;2022-11-20T01:43:58;0.40;69.60
65046;DHT22;54657;52.022;5.534;2022-11-20T01:46:24;0.50;69.40
65046;DHT22;54657;52.022;5.534;2022-11-20T01:49:56;0.50;69.40
65046;DHT22;54657;52.022;5.534;2022-11-20T01:51:58;0.40;69.50
65046;DHT22;54657;52.022;5.534;2022-11-20T01:54:31;0.20;69.80
65046;DHT22;54657;52.022;5.534;2022-11-20T01:56:59;0.00;70.20
65046;DHT22;54657;52.022;5.534;2022-11-20T01:59:27;0.10;70.10
65046;DHT22;54657;52.022;5.534;2022-11-20T02:01:54;0.20;69.90
65046;DHT22;54657;52.022;5.534;2022-11-20T02:04:20;0.30;69.70
65046;DHT22;54657;52.022;5.534;2022-11-20T02:07:02;0.30;69.50
65046;DHT22;54657;52.022;5.534;2022-11-20T02:09:29;0.20;69.50
65046;DHT22;54657;52.022;5.534;2022-11-20T02:11:55;0.10;69.70
65046;DHT22;54657;52.022;5.534;2022-11-20T02:14:21;0.10;69.90
65046;DHT22;54657;52.022;5.534;2022-11-20T02:16:48;0.20;69.90
65046;DHT22;54657;52.022;5.534;2022-11-20T02:19:41;0.20;69.80
65046;DHT22;54657;52.022;5.534;2022-11-20T02:22:24;0.20;69.40
65046;DHT22;54657;52.022;5.534;2022-11-20T02:24:54;0.10;69.80
65046;DHT22;54657;52.022;5.534;2022-11-20T02:27:20;0.20;69.70
65046;DHT22;54657;52.022;5.534;2022-11-20T02:30:04;0.10;69.60
65046;DHT22;54657;52.022;5.534;2022-11-20T02:32:35;0.10;69.70
65046;DHT22;54657;52.022;5.534;2022-11-20T02:35:10;0.10;69.70
65046;DHT22;54657;52.022;5.534;2022-11-20T02:37:56;0.10;69.70
65046;DHT22;54657;52.022;5.534;2022-11-20T02:40:22;0.00;69.50
65046;DHT22;54657;52.022;5.534;2022-11-20T02:42:51;-0.10;69.60
65046;DHT22;54657;52.022;5.534;2022-11-20T02:45:16;-0.10;69.90
65046;DHT22;54657;52.022;5.534;2022-11-20T02:47:42;-0.10;69.90
65046;DHT22;54657;52.022;5.534;2022-11-20T02:50:08;0.00;69.80
65046;DHT22;54657;52.022;5.534;2022-11-20T02:52:33;0.00;69.80
65046;DHT22;54657;52.022;5.534;2022-11-20T02:54:59;0.00;69.90
65046;DHT22;54657;52.022;5.534;2022-11-20T02:57:24;0.00;70.40
65046;DHT22;54657;52.022;5.534;2022-11-20T02:59:50;0.10;69.70
65046;DHT22;54657;52.022;5.534;2022-11-20T03:02:15;0.10;69.60
65046;DHT22;54657;52.022;5.534;2022-11-20T03:04:41;0.00;69.50
65046;DHT22;54657;52.022;5.534;2022-11-20T03:07:08;0.00;69.50
65046;DHT22;54657;52.022;5.534;2022-11-20T03:09:33;0.00;69.50
65046;DHT22;54657;52.022;5.534;2022-11-20T03:11:59;0.00;69.40
65046;DHT22;54657;52.022;5.534;2022-11-20T03:14:24;-0.10;69.40
65046;DHT22;54657;52.022;5.534;2022-11-20T03:16:50;-0.10;69.40
65046;DHT22;54657;52.022;5.534;2022-11-20T03:19:15;0.00;69.30
65046;DHT22;54657;52.022;5.534;2022-11-20T03:21:41;0.00;69.30
65046;DHT22;54657;52.022;5.534;2022-11-20T03:24:07;0.00;69.30
65046;DHT22;54657;52.022;5.534;2022-11-20T03:26:33;-0.10;69.40
65046;DHT22;54657;52.022;5.534;2022-11-20T03:29:01;-0.10;69.20
65046;DHT22;54657;52.022;5.534;2022-11-20T03:31:33;-0.10;69.30
65046;DHT22;54657;52.022;5.534;2022-11-20T03:34:00;-0.20;69.40
65046;DHT22;54657;52.022;5.534;2022-11-20T03:36:27;-0.30;69.60
65046;DHT22;54657;52.022;5.534;2022-11-20T03:38:53;-0.30;69.80
65046;DHT22;54657;52.022;5.534;2022-11-20T03:41:27;-0.30;69.80
65046;DHT22;54657;52.022;5.534;2022-11-20T03:43:55;-0.20;69.70
65046;DHT22;54657;52.022;5.534;2022-11-20T03:46:21;-0.20;69.50
65046;DHT22;54657;52.022;5.534;2022-11-20T03:48:47;-0.20;69.60
65046;DHT22;54657;52.022;5.534;2022-11-20T03:51:21;-0.10;69.50
65046;DHT22;54657;52.022;5.534;2022-11-20T03:53:49;-0.20;69.30
65046;DHT22;54657;52.022;5.534;2022-11-20T03:56:17;-0.20;69.30
65046;DHT22;54657;52.022;5.534;2022-11-20T03:58:43;-0.20;69.40
65046;DHT22;54657;52.022;5.534;2022-11-20T04:01:21;-0.30;69.50
65046;DHT22;54657;52.022;5.534;2022-11-20T04:03:47;-0.20;69.50
65046;DHT22;54657;52.022;5.534;2022-11-20T04:08:40;-0.20;69.30
65046;DHT22;54657;52.022;5.534;2022-11-20T04:11:12;-0.20;69.30
65046;DHT22;54657;52.022;5.534;2022-11-20T04:13:38;-0.30;69.20
65046;DHT22;54657;52.022;5.534;2022-11-20T04:16:05;-0.50;69.40
65046;DHT22;54657;52.022;5.534;2022-11-20T04:18:32;-0.40;69.70
65046;DHT22;54657;52.022;5.534;2022-11-20T04:20:58;-0.40;69.70
65046;DHT22;54657;52.022;5.534;2022-11-20T04:23:24;-0.40;69.60
65046;DHT22;54657;52.022;5.534;2022-11-20T04:25:50;-0.40;69.40
65046;DHT22;54657;52.022;5.534;2022-11-20T04:28:15;-0.40;69.50
65046;DHT22;54657;52.022;5.534;2022-11-20T04:30:41;-0.50;69.50
65046;DHT22;54657;52.022;5.534;2022-11-20T04:33:06;-0.50;69.60
65046;DHT22;54657;52.022;5.534;2022-11-20T04:35:35;-0.50;69.60
65046;DHT22;54657;52.022;5.534;2022-11-20T04:38:02;-0.50;69.70
65046;DHT22;54657;52.022;5.534;2022-11-20T04:40:28;-0.40;69.70
65046;DHT22;54657;52.022;5.534;2022-11-20T04:42:54;-0.40;69.60
65046;DHT22;54657;52.022;5.534;2022-11-20T04:45:20;-0.40;69.60
65046;DHT22;54657;52.022;5.534;2022-11-20T04:47:45;-0.40;69.60
65046;DHT22;54657;52.022;5.534;2022-11-20T04:50:11;-0.50;69.50
65046;DHT22;54657;52.022;5.534;2022-11-20T04:52:36;-0.40;69.50
65046;DHT22;54657;52.022;5.534;2022-11-20T04:55:02;-0.50;69.50
65046;DHT22;54657;52.022;5.534;2022-11-20T04:57:28;-0.50;69.80
65046;DHT22;54657;52.022;5.534;2022-11-20T04:59:53;-0.50;69.90
65046;DHT22;54657;52.022;5.534;2022-11-20T05:02:19;-0.50;69.80
65046;DHT22;54657;52.022;5.534;2022-11-20T05:04:45;-0.50;69.80
65046;DHT22;54657;52.022;5.534;2022-11-20T05:07:10;-0.40;69.80
65046;DHT22;54657;52.022;5.534;2022-11-20T05:09:36;-0.40;69.70
65046;DHT22;54657;52.022;5.534;2022-11-20T05:12:01;-0.40;69.60
65046;DHT22;54657;52.022;5.534;2022-11-20T05:14:27;-0.40;69.50
65046;DHT22;54657;52.022;5.534;2022-11-20T05:16:53;-0.40;69.50
65046;DHT22;54657;52.022;5.534;2022-11-20T05:19:18;-0.40;69.30
65046;DHT22;54657;52.022;5.534;2022-11-20T05:21:44;-0.50;69.30
65046;DHT22;54657;52.022;5.534;2022-11-20T05:24:09;-0.40;69.30
65046;DHT22;54657;52.022;5.534;2022-11-20T05:26:35;-0.50;69.40
65046;DHT22;54657;52.022;5.534;2022-11-20T05:29:00;-0.50;69.30
65046;DHT22;54657;52.022;5.534;2022-11-20T05:31:26;-0.40;69.30
65046;DHT22;54657;52.022;5.534;2022-11-20T05:33:52;-0.50;69.20
65046;DHT22;54657;52.022;5.534;2022-11-20T05:36:18;-0.60;69.30
65046;DHT22;54657;52.022;5.534;2022-11-20T05:38:43;-0.70;69.60
65046;DHT22;54657;52.022;5.534;2022-11-20T05:41:17;-0.70;69.80
65046;DHT22;54657;52.022;5.534;2022-11-20T05:43:45;-0.60;69.90
65046;DHT22;54657;52.022;5.534;2022-11-20T05:46:13;-0.70;69.80
65046;DHT22;54657;52.022;5.534;2022-11-20T05:48:40;-0.70;69.90
65046;DHT22;54657;52.022;5.534;2022-11-20T05:51:08;-0.70;70.00
65046;DHT22;54657;52.022;5.534;2022-11-20T05:53:35;-0.70;70.00
65046;DHT22;54657;52.022;5.534;2022-11-20T05:56:05;-0.60;70.10
65046;DHT22;54657;52.022;5.534;2022-11-20T05:58:32;-0.60;69.90
65046;DHT22;54657;52.022;5.534;2022-11-20T06:01:30;-0.60;70.30
65046;DHT22;54657;52.022;5.534;2022-11-20T06:03:56;-0.60;69.30
65046;DHT22;54657;52.022;5.534;2022-11-20T06:06:21;-0.50;69.30
65046;DHT22;54657;52.022;5.534;2022-11-20T06:08:47;-0.60;69.20
65046;DHT22;54657;52.022;5.534;2022-11-20T06:11:14;-0.60;69.10
65046;DHT22;54657;52.022;5.534;2022-11-20T06:13:40;-0.60;69.00
65046;DHT22;54657;52.022;5.534;2022-11-20T06:16:06;-0.70;69.10
65046;DHT22;54657;52.022;5.534;2022-11-20T06:18:32;-0.80;69.30
65046;DHT22;54657;52.022;5.534;2022-11-20T06:21:16;-0.80;69.50
65046;DHT22;54657;52.022;5.534;2022-11-20T06:23:42;-0.80;69.50
65046;DHT22;54657;52.022;5.534;2022-11-20T06:26:12;-0.80;69.50
65046;DHT22;54657;52.022;5.534;2022-11-20T06:28:39;-0.80;69.50
65046;DHT22;54657;52.022;5.534;2022-11-20T06:31:05;-0.80;69.30
65046;DHT22;54657;52.022;5.534;2022-11-20T06:33:32;-0.80;69.20
65046;DHT22;54657;52.022;5.534;2022-11-20T06:35:59;-0.80;69.70
65046;DHT22;54657;52.022;5.534;2022-11-20T06:38:26;-0.80;69.10
65046;DHT22;54657;52.022;5.534;2022-11-20T06:40:51;-0.90;69.00
65046;DHT22;54657;52.022;5.534;2022-11-20T06:43:17;-0.90;69.30
65046;DHT22;54657;52.022;5.534;2022-11-20T06:45:42;-0.90;69.40
65046;DHT22;54657;52.022;5.534;2022-11-20T06:48:09;-1.00;69.50
65046;DHT22;54657;52.022;5.534;2022-11-20T06:50:36;-1.10;69.70
65046;DHT22;54657;52.022;5.534;2022-11-20T06:53:02;-1.00;69.80
65046;DHT22;54657;52.022;5.534;2022-11-20T06:55:29;-1.00;69.80
65046;DHT22;54657;52.022;5.534;2022-11-20T06:57:55;-0.90;69.70
65046;DHT22;54657;52.022;5.534;2022-11-20T07:00:20;-0.80;69.60
65046;DHT22;54657;52.022;5.534;2022-11-20T07:02:46;-0.80;69.50
65046;DHT22;54657;52.022;5.534;2022-11-20T07:05:11;-0.80;69.50
65046;DHT22;54657;52.022;5.534;2022-11-20T07:07:37;-0.70;69.50
65046;DHT22;54657;52.022;5.534;2022-11-20T07:10:03;-0.70;69.40
65046;DHT22;54657;52.022;5.534;2022-11-20T07:12:29;-0.70;69.30
65046;DHT22;54657;52.022;5.534;2022-11-20T07:14:54;-0.80;69.50
65046;DHT22;54657;52.022;5.534;2022-11-20T07:17:20;-0.70;69.50
65046;DHT22;54657;52.022;5.534;2022-11-20T07:19:46;-0.70;69.50
65046;DHT22;54657;52.022;5.534;2022-11-20T07:22:11;-0.70;69.60
65046;DHT22;54657;52.022;5.534;2022-11-20T07:24:37;-0.70;69.70
65046;DHT22;54657;52.022;5.534;2022-11-20T07:27:02;-0.70;69.70
65046;DHT22;54657;52.022;5.534;2022-11-20T07:29:29;-0.60;69.80
65046;DHT22;54657;52.022;5.534;2022-11-20T07:31:54;-0.60;69.70
65046;DHT22;54657;52.022;5.534;2022-11-20T07:34:21;-0.50;69.70
65046;DHT22;54657;52.022;5.534;2022-11-20T07:36:47;-0.50;69.80
65046;DHT22;54657;52.022;5.534;2022-11-20T07:39:12;-0.40;69.70
65046;DHT22;54657;52.022;5.534;2022-11-20T07:41:38;-0.40;69.50
65046;DHT22;54657;52.022;5.534;2022-11-20T07:44:03;-0.40;69.50
65046;DHT22;54657;52.022;5.534;2022-11-20T07:46:29;-0.40;69.70
65046;DHT22;54657;52.022;5.534;2022-11-20T07:48:54;-0.50;69.80
65046;DHT22;54657;52.022;5.534;2022-11-20T07:51:20;-0.40;70.10
65046;DHT22;54657;52.022;5.534;2022-11-20T07:53:45;-0.40;70.20
65046;DHT22;54657;52.022;5.534;2022-11-20T07:56:11;-0.30;70.20
65046;DHT22;54657;52.022;5.534;2022-11-20T07:58:36;-0.30;70.20
65046;DHT22;54657;52.022;5.534;2022-11-20T08:01:11;-0.20;70.20
65046;DHT22;54657;52.022;5.534;2022-11-20T08:03:37;-0.20;70.20
65046;DHT22;54657;52.022;5.534;2022-11-20T08:06:05;-0.10;70.20
65046;DHT22;54657;52.022;5.534;2022-11-20T08:08:31;0.00;70.20
65046;DHT22;54657;52.022;5.534;2022-11-20T08:10:57;0.00;70.20
65046;DHT22;54657;52.022;5.534;2022-11-20T08:13:43;0.10;70.20
65046;DHT22;54657;52.022;5.534;2022-11-20T08:16:28;0.30;70.40
65046;DHT22;54657;52.022;5.534;2022-11-20T08:18:53;0.30;70.30
65046;DHT22;54657;52.022;5.534;2022-11-20T08:21:19;0.40;70.20
65046;DHT22;54657;52.022;5.534;2022-11-20T08:23:44;0.40;70.40
65046;DHT22;54657;52.022;5.534;2022-11-20T08:26:10;0.40;70.60
65046;DHT22;54657;52.022;5.534;2022-11-20T08:28:35;0.50;70.70
65046;DHT22;54657;52.022;5.534;2022-11-20T08:31:02;0.60;70.40
65046;DHT22;54657;52.022;5.534;2022-11-20T08:33:28;0.60;70.60
65046;DHT22;54657;52.022;5.534;2022-11-20T08:35:59;0.70;71.10
65046;DHT22;54657;52.022;5.534;2022-11-20T08:38:25;0.80;70.80
65046;DHT22;54657;52.022;5.534;2022-11-20T08:40:50;0.90;70.60
65046;DHT22;54657;52.022;5.534;2022-11-20T08:43:34;0.90;70.80
65046;DHT22;54657;52.022;5.534;2022-11-20T08:46:00;0.90;70.70
65046;DHT22;54657;52.022;5.534;2022-11-20T08:48:25;1.00;70.60
65046;DHT22;54657;52.022;5.534;2022-11-20T08:50:51;0.90;70.70
65046;DHT22;54657;52.022;5.534;2022-11-20T08:53:16;1.00;71.00
65046;DHT22;54657;52.022;5.534;2022-11-20T08:55:42;1.10;70.90
65046;DHT22;54657;52.022;5.534;2022-11-20T08:58:08;1.30;70.80
65046;DHT22;54657;52.022;5.534;2022-11-20T09:00:34;1.30;70.80
65046;DHT22;54657;52.022;5.534;2022-11-20T09:03:00;1.30;70.70
65046;DHT22;54657;52.022;5.534;2022-11-20T09:05:26;1.40;70.50
65046;DHT22;54657;52.022;5.534;2022-11-20T09:07:55;1.30;70.90
65046;DHT22;54657;52.022;5.534;2022-11-20T09:10:21;1.40;70.90
65046;DHT22;54657;52.022;5.534;2022-11-20T09:12:48;1.50;71.00
65046;DHT22;54657;52.022;5.534;2022-11-20T09:15:14;1.60;71.00
65046;DHT22;54657;52.022;5.534;2022-11-20T09:17:40;1.70;70.90
65046;DHT22;54657;52.022;5.534;2022-11-20T09:20:06;1.70;70.90
65046;DHT22;54657;52.022;5.534;2022-11-20T09:22:31;1.80;70.90
65046;DHT22;54657;52.022;5.534;2022-11-20T09:24:58;1.80;70.80
65046;DHT22;54657;52.022;5.534;2022-11-20T09:27:23;1.90;71.00
65046;DHT22;54657;52.022;5.534;2022-11-20T09:29:49;2.00;70.90
65046;DHT22;54657;52.022;5.534;2022-11-20T09:32:14;2.00;70.70
65046;DHT22;54657;52.022;5.534;2022-11-20T09:34:40;2.00;70.90
65046;DHT22;54657;52.022;5.534;2022-11-20T09:37:05;2.10;71.10
65046;DHT22;54657;52.022;5.534;2022-11-20T09:39:31;2.20;71.00
65046;DHT22;54657;52.022;5.534;2022-11-20T09:42:22;2.20;71.00
65046;DHT22;54657;52.022;5.534;2022-11-20T09:47:47;2.40;71.20
65046;DHT22;54657;52.022;5.534;2022-11-20T09:50:23;2.50;71.10
65046;DHT22;54657;52.022;5.534;2022-11-20T09:55:41;2.60;70.90
65046;DHT22;54657;52.022;5.534;2022-11-20T09:58:20;2.70;70.70
65046;DHT22;54657;52.022;5.534;2022-11-20T10:00:49;2.70;71.00
65046;DHT22;54657;52.022;5.534;2022-11-20T10:03:35;2.70;71.00
65046;DHT22;54657;52.022;5.534;2022-11-20T10:06:02;2.80;71.00
65046;DHT22;54657;52.022;5.534;2022-11-20T10:08:36;2.80;71.10
65046;DHT22;54657;52.022;5.534;2022-11-20T10:11:30;2.80;70.90
65046;DHT22;54657;52.022;5.534;2022-11-20T10:14:15;2.90;71.20
65046;DHT22;54657;52.022;5.534;2022-11-20T10:24:56;3.20;71.30
65046;DHT22;54657;52.022;5.534;2022-11-20T10:28:04;3.20;71.20
65046;DHT22;54657;52.022;5.534;2022-11-20T10:30:38;3.30;71.40
65046;DHT22;54657;52.022;5.534;2022-11-20T10:33:19;3.30;71.00
65046;DHT22;54657;52.022;5.534;2022-11-20T10:36:00;3.40;71.20
65046;DHT22;54657;52.022;5.534;2022-11-20T10:38:43;3.40;71.30
65046;DHT22;54657;52.022;5.534;2022-11-20T10:41:16;3.50;71.20
65046;DHT22;54657;52.022;5.534;2022-11-20T10:44:16;3.50;71.50
65046;DHT22;54657;52.022;5.534;2022-11-20T10:47:04;3.60;71.50
65046;DHT22;54657;52.022;5.534;2022-11-20T10:49:30;3.50;71.40
65046;DHT22;54657;52.022;5.534;2022-11-20T10:52:19;3.40;71.40
65046;DHT22;54657;52.022;5.534;2022-11-20T11:00:17;3.50;71.90
65046;DHT22;54657;52.022;5.534;2022-11-20T11:02:48;3.50;71.80
65046;DHT22;54657;52.022;5.534;2022-11-20T11:07:48;3.70;72.10
65046;DHT22;54657;52.022;5.534;2022-11-20T11:10:18;3.70;72.00
65046;DHT22;54657;52.022;5.534;2022-11-20T11:12:46;3.80;72.20
65046;DHT22;54657;52.022;5.534;2022-11-20T11:15:37;3.90;71.90
65046;DHT22;54657;52.022;5.534;2022-11-20T11:18:03;4.00;72.30
65046;DHT22;54657;52.022;5.534;2022-11-20T11:20:28;3.90;71.90
65046;DHT22;54657;52.022;5.534;2022-11-20T11:22:59;4.00;72.20
65046;DHT22;54657;52.022;5.534;2022-11-20T11:27:58;4.10;72.20
65046;DHT22;54657;52.022;5.534;2022-11-20T11:30:25;4.20;72.20
65046;DHT22;54657;52.022;5.534;2022-11-20T11:33:05;4.10;72.20
65046;DHT22;54657;52.022;5.534;2022-11-20T11:35:31;4.20;72.30
65046;DHT22;54657;52.022;5.534;2022-11-20T11:38:05;4.20;72.10
65046;DHT22;54657;52.022;5.534;2022-11-20T11:40:34;4.20;72.20
65046;DHT22;54657;52.022;5.534;2022-11-20T11:43:04;4.10;72.20
65046;DHT22;54657;52.022;5.534;2022-11-20T11:45:30;4.10;72.20
65046;DHT22;54657;52.022;5.534;2022-11-20T11:47:58;4.10;72.50
65046;DHT22;54657;52.022;5.534;2022-11-20T11:50:27;4.10;72.30
65046;DHT22;54657;52.022;5.534;2022-11-20T11:58:23;4.20;72.60
65046;DHT22;54657;52.022;5.534;2022-11-20T12:01:07;4.20;72.80
65046;DHT22;54657;52.022;5.534;2022-11-20T12:03:38;4.30;72.70
65046;DHT22;54657;52.022;5.534;2022-11-20T12:06:12;4.20;72.60
65046;DHT22;54657;52.022;5.534;2022-11-20T12:08:53;4.30;72.60
65046;DHT22;54657;52.022;5.534;2022-11-20T12:11:33;4.30;72.50
65046;DHT22;54657;52.022;5.534;2022-11-20T12:14:27;4.30;73.10
65046;DHT22;54657;52.022;5.534;2022-11-20T12:16:57;4.30;73.10
65046;DHT22;54657;52.022;5.534;2022-11-20T12:19:23;4.30;73.00
65046;DHT22;54657;52.022;5.534;2022-11-20T12:30:08;4.30;73.70
65046;DHT22;54657;52.022;5.534;2022-11-20T12:33:01;4.30;73.50
65046;DHT22;54657;52.022;5.534;2022-11-20T12:47:12;4.30;74.00
65046;DHT22;54657;52.022;5.534;2022-11-20T12:50:22;4.30;74.10
65046;DHT22;54657;52.022;5.534;2022-11-20T12:55:54;4.30;74.30
65046;DHT22;54657;52.022;5.534;2022-11-20T12:58:32;4.30;74.40
65046;DHT22;54657;52.022;5.534;2022-11-20T13:07:22;4.20;75.00
65046;DHT22;54657;52.022;5.534;2022-11-20T13:09:50;4.30;75.10
65046;DHT22;54657;52.022;5.534;2022-11-20T13:12:30;4.30;74.70
65046;DHT22;54657;52.022;5.534;2022-11-20T13:15:23;4.30;74.80
65046;DHT22;54657;52.022;5.534;2022-11-20T13:17:59;4.40;74.80
65046;DHT22;54657;52.022;5.534;2022-11-20T13:20:26;4.40;75.00
65046;DHT22;54657;52.022;5.534;2022-11-20T13:22:54;4.50;74.70
65046;DHT22;54657;52.022;5.534;2022-11-20T13:27:56;4.50;74.60
65046;DHT22;54657;52.022;5.534;2022-11-20T13:30:24;4.50;74.60
65046;DHT22;54657;52.022;5.534;2022-11-20T13:38:01;4.60;75.00
65046;DHT22;54657;52.022;5.534;2022-11-20T13:40:28;4.60;75.00
65046;DHT22;54657;52.022;5.534;2022-11-20T13:46:07;4.70;74.90
65046;DHT22;54657;52.022;5.534;2022-11-20T13:57:09;4.50;74.90
65046;DHT22;54657;52.022;5.534;2022-11-20T14:02:21;4.50;74.80
65046;DHT22;54657;52.022;5.534;2022-11-20T14:04:49;4.50;75.30
65046;DHT22;54657;52.022;5.534;2022-11-20T14:07:17;4.50;75.10
65046;DHT22;54657;52.022;5.534;2022-11-20T14:09:55;4.50;75.00
65046;DHT22;54657;52.022;5.534;2022-11-20T14:12:30;4.60;75.80
65046;DHT22;54657;52.022;5.534;2022-11-20T14:14:56;4.60;75.30
65046;DHT22;54657;52.022;5.534;2022-11-20T14:19:50;4.70;75.50
65046;DHT22;54657;52.022;5.534;2022-11-20T14:22:21;4.80;75.30
65046;DHT22;54657;52.022;5.534;2022-11-20T14:24:51;4.80;74.80
65046;DHT22;54657;52.022;5.534;2022-11-20T14:27:25;4.70;75.10
65046;DHT22;54657;52.022;5.534;2022-11-20T14:29:51;4.60;75.30
65046;DHT22;54657;52.022;5.534;2022-11-20T14:32:19;4.60;75.40
65046;DHT22;54657;52.022;5.534;2022-11-20T14:34:47;4.60;75.80
65046;DHT22;54657;52.022;5.534;2022-11-20T14:37:21;4.50;75.80
65046;DHT22;54657;52.022;5.534;2022-11-20T14:39:54;4.50;75.60
65046;DHT22;54657;52.022;5.534;2022-11-20T14:42:22;4.50;75.60
65046;DHT22;54657;52.022;5.534;2022-11-20T14:44:50;4.40;75.80
65046;DHT22;54657;52.022;5.534;2022-11-20T14:47:19;4.40;75.90
65046;DHT22;54657;52.022;5.534;2022-11-20T14:49:47;4.50;76.40
65046;DHT22;54657;52.022;5.534;2022-11-20T14:52:24;4.50;75.90
65046;DHT22;54657;52.022;5.534;2022-11-20T14:54:54;4.50;76.30
65046;DHT22;54657;52.022;5.534;2022-11-20T14:59:50;4.50;76.40
65046;DHT22;54657;52.022;5.534;2022-11-20T15:02:16;4.50;76.50
65046;DHT22;54657;52.022;5.534;2022-11-20T15:04:50;4.50;77.00
65046;DHT22;54657;52.022;5.534;2022-11-20T15:07:33;4.50;76.50
65046;DHT22;54657;52.022;5.534;2022-11-20T15:10:01;4.60;76.50
65046;DHT22;54657;52.022;5.534;2022-11-20T15:12:27;4.50;76.10
65046;DHT22;54657;52.022;5.534;2022-11-20T15:14:52;4.50;76.50
65046;DHT22;54657;52.022;5.534;2022-11-20T15:17:18;4.50;76.40
65046;DHT22;54657;52.022;5.534;2022-11-20T15:19:44;4.60;76.70
65046;DHT22;54657;52.022;5.534;2022-11-20T15:22:12;4.60;76.80
65046;DHT22;54657;52.022;5.534;2022-11-20T15:24:44;4.60;76.70
65046;DHT22;54657;52.022;5.534;2022-11-20T15:27:10;4.60;76.50
65046;DHT22;54657;52.022;5.534;2022-11-20T15:29:35;4.70;76.60
65046;DHT22;54657;52.022;5.534;2022-11-20T15:32:01;4.70;76.90
65046;DHT22;54657;52.022;5.534;2022-11-20T15:34:27;4.70;76.70
65046;DHT22;54657;52.022;5.534;2022-11-20T15:36:53;4.80;76.70
65046;DHT22;54657;52.022;5.534;2022-11-20T15:39:20;4.70;77.10
65046;DHT22;54657;52.022;5.534;2022-11-20T15:41:45;4.80;76.70
65046;DHT22;54657;52.022;5.534;2022-11-20T15:44:11;4.70;77.50
65046;DHT22;54657;52.022;5.534;2022-11-20T15:46:39;4.70;76.70
65046;DHT22;54657;52.022;5.534;2022-11-20T15:49:13;4.80;76.70
65046;DHT22;54657;52.022;5.534;2022-11-20T15:51:48;4.70;76.90
65046;DHT22;54657;52.022;5.534;2022-11-20T15:54:19;4.70;77.10
65046;DHT22;54657;52.022;5.534;2022-11-20T15:56:46;4.70;77.00
65046;DHT22;54657;52.022;5.534;2022-11-20T15:59:12;4.70;76.90
65046;DHT22;54657;52.022;5.534;2022-11-20T16:01:40;4.70;76.90
65046;DHT22;54657;52.022;5.534;2022-11-20T16:04:11;4.70;77.20
65046;DHT22;54657;52.022;5.534;2022-11-20T16:06:36;4.70;78.40
65046;DHT22;54657;52.022;5.534;2022-11-20T16:09:02;4.70;78.00
65046;DHT22;54657;52.022;5.534;2022-11-20T16:11:28;4.70;78.40
65046;DHT22;54657;52.022;5.534;2022-11-20T16:13:53;4.80;78.40
65046;DHT22;54657;52.022;5.534;2022-11-20T16:16:38;4.80;78.10
65046;DHT22;54657;52.022;5.534;2022-11-20T16:19:05;4.80;78.50
65046;DHT22;54657;52.022;5.534;2022-11-20T16:21:31;4.80;78.00
65046;DHT22;54657;52.022;5.534;2022-11-20T16:23:58;4.80;77.80
65046;DHT22;54657;52.022;5.534;2022-11-20T16:26:23;4.90;78.50
65046;DHT22;54657;52.022;5.534;2022-11-20T16:28:49;4.90;77.90
65046;DHT22;54657;52.022;5.534;2022-11-20T16:31:17;4.90;78.40
65046;DHT22;54657;52.022;5.534;2022-11-20T16:33:48;5.00;78.90
65046;DHT22;54657;52.022;5.534;2022-11-20T16:36:14;5.00;78.10
65046;DHT22;54657;52.022;5.534;2022-11-20T16:38:41;5.00;78.20
65046;DHT22;54657;52.022;5.534;2022-11-20T16:41:07;5.10;78.20
65046;DHT22;54657;52.022;5.534;2022-11-20T16:43:47;5.20;78.20
65046;DHT22;54657;52.022;5.534;2022-11-20T16:46:14;5.20;78.80
65046;DHT22;54657;52.022;5.534;2022-11-20T16:48:40;5.20;78.20
65046;DHT22;54657;52.022;5.534;2022-11-20T16:51:08;5.20;77.80
65046;DHT22;54657;52.022;5.534;2022-11-20T16:53:34;5.10;79.00
65046;DHT22;54657;52.022;5.534;2022-11-20T16:56:14;5.10;78.80
65046;DHT22;54657;52.022;5.534;2022-11-20T16:58:44;5.20;79.00
65046;DHT22;54657;52.022;5.534;2022-11-20T17:01:11;5.10;77.90
65046;DHT22;54657;52.022;5.534;2022-11-20T17:03:38;5.10;78.10
65046;DHT22;54657;52.022;5.534;2022-11-20T17:06:31;5.10;79.10
65046;DHT22;54657;52.022;5.534;2022-11-20T17:08:58;5.10;79.60
65046;DHT22;54657;52.022;5.534;2022-11-20T17:11:24;5.10;79.10
65046;DHT22;54657;52.022;5.534;2022-11-20T17:13:50;5.10;79.40
65046;DHT22;54657;52.022;5.534;2022-11-20T17:16:19;5.10;78.80
65046;DHT22;54657;52.022;5.534;2022-11-20T17:18:44;5.10;79.20
65046;DHT22;54657;52.022;5.534;2022-11-20T17:21:11;5.20;78.60
65046;DHT22;54657;52.022;5.534;2022-11-20T17:23:42;5.20;78.40